Time;durP1;ratioP1;P1;durP2;ratioP2;P2;SDS_P1;SDS_P2;PMS_P1;PMS_P2;Temp;Humidity;BMP_temperature;BMP_pressure;BME280_temperature;BME280_humidity;BME280_pressure;Samples;Min_cycle;Max_cycle;Signal;HPM_P1;HPM_P2
2021/01/17 00:00:20;;;;;;;33.07;22.10;;;-0.60;99.90;;;;;;5092376;28;20653;-48
2021/01/17 00:02:48;;;;;;;33.43;21.97;;;-0.70;99.90;;;;;;5092718;28;20297;-45
2021/01/17 00:05:17;;;;;;;32.80;21.03;;;-0.60;99.90;;;;;;5092623;28;20297;-46
2021/01/17 00:07:44;;;;;;;33.40;22.57;;;-0.60;99.90;;;;;;5092481;28;20300;-47
2021/01/17 00:10:13;;;;;;;32.27;21.33;;;-0.50;99.90;;;;;;5092476;28;20230;-45
2021/01/17 00:12:40;;;;;;;28.23;20.47;;;-0.50;99.90;;;;;;5092098;28;20670;-45
2021/01/17 00:15:09;;;;;;;36.83;22.70;;;-0.50;99.90;;;;;;5092644;28;20234;-44
2021/01/17 00:17:37;;;;;;;34.40;23.63;;;-0.50;99.90;;;;;;5092679;28;20256;-44
2021/01/17 00:20:06;;;;;;;34.03;22.37;;;-0.50;99.90;;;;;;5092290;28;20250;-45
2021/01/17 00:22:33;;;;;;;34.10;21.47;;;-0.40;99.90;;;;;;5092410;28;20290;-49
2021/01/17 00:25:05;;;;;;;31.70;21.40;;;-0.40;99.90;;;;;;5092422;28;20211;-47
2021/01/17 00:27:32;;;;;;;34.27;22.90;;;-0.50;99.90;;;;;;5091992;28;20275;-45
2021/01/17 00:29:59;;;;;;;32.30;21.00;;;-0.50;99.90;;;;;;5092299;28;20238;-45
2021/01/17 00:32:26;;;;;;;29.55;20.23;;;-0.50;99.90;;;;;;5092278;28;20237;-44
2021/01/17 00:34:54;;;;;;;34.37;22.63;;;-0.50;99.90;;;;;;5096171;28;20230;-44
2021/01/17 00:37:21;;;;;;;32.58;21.58;;;-0.60;99.90;;;;;;5098907;28;20202;-44
2021/01/17 00:39:49;;;;;;;28.00;20.73;;;-0.60;99.90;;;;;;5098796;28;20215;-44
2021/01/17 00:42:16;;;;;;;30.50;20.63;;;-0.60;99.90;;;;;;5098915;28;20238;-45
2021/01/17 00:44:44;;;;;;;31.30;22.63;;;-0.70;99.90;;;;;;5098963;28;20376;-46
2021/01/17 00:47:12;;;;;;;29.70;21.47;;;-0.70;99.90;;;;;;5098928;28;20267;-44
2021/01/17 00:49:40;;;;;;;33.30;21.83;;;-0.70;99.90;;;;;;5098685;28;20679;-47
2021/01/17 00:52:07;;;;;;;30.38;20.88;;;-0.70;99.90;;;;;;5098662;28;20293;-43
2021/01/17 00:54:34;;;;;;;33.97;21.73;;;-0.70;99.90;;;;;;5098501;28;20696;-43
2021/01/17 00:57:04;;;;;;;34.47;21.73;;;-0.70;99.90;;;;;;5098476;28;20644;-43
2021/01/17 00:59:31;;;;;;;35.40;23.60;;;-0.60;99.90;;;;;;5093787;28;20246;-45
2021/01/17 01:01:58;;;;;;;37.27;23.40;;;-0.50;99.90;;;;;;5083869;28;20298;-44
2021/01/17 01:04:25;;;;;;;34.03;22.20;;;-0.40;99.90;;;;;;5097832;28;20272;-44
2021/01/17 01:06:52;;;;;;;31.83;21.20;;;-0.40;99.90;;;;;;5098533;28;20246;-47
2021/01/17 01:09:20;;;;;;;35.23;21.87;;;-0.30;99.90;;;;;;5098527;28;20249;-46
2021/01/17 01:11:48;;;;;;;33.50;22.60;;;-0.20;99.90;;;;;;5091678;28;20705;-46
2021/01/17 01:14:16;;;;;;;33.47;22.33;;;-0.10;99.90;;;;;;5096155;28;20724;-45
2021/01/17 01:16:48;;;;;;;35.07;24.23;;;-0.10;99.90;;;;;;5096098;28;20297;-45
2021/01/17 01:19:15;;;;;;;36.07;22.37;;;-0.10;99.90;;;;;;5098760;28;20215;-44
2021/01/17 01:21:42;;;;;;;36.90;23.77;;;-0.10;99.90;;;;;;5087335;28;20319;-48
2021/01/17 01:24:11;;;;;;;39.23;25.13;;;0.10;99.90;;;;;;5085974;28;20293;-45
2021/01/17 01:26:41;;;;;;;34.63;23.90;;;0.10;99.90;;;;;;5078237;28;20213;-44
2021/01/17 01:29:09;;;;;;;38.53;23.83;;;0.20;99.90;;;;;;5078948;28;20218;-44
2021/01/17 01:31:37;;;;;;;33.33;23.80;;;0.20;99.90;;;;;;5083422;28;20211;-44
2021/01/17 01:34:05;;;;;;;37.53;23.40;;;0.30;99.90;;;;;;5098318;28;20230;-47
2021/01/17 01:36:34;;;;;;;35.77;23.57;;;0.30;99.90;;;;;;5098555;28;20241;-45
2021/01/17 01:39:03;;;;;;;36.43;23.33;;;0.40;99.90;;;;;;5098448;28;20202;-46
2021/01/17 01:41:31;;;;;;;35.73;23.63;;;0.40;99.90;;;;;;5098468;28;20238;-45
2021/01/17 01:44:00;;;;;;;32.47;22.57;;;0.40;99.90;;;;;;5098326;28;20206;-44
2021/01/17 01:46:29;;;;;;;38.73;25.20;;;0.40;99.90;;;;;;5094801;28;20206;-44
2021/01/17 01:48:59;;;;;;;34.00;23.97;;;0.40;99.90;;;;;;5095247;28;20217;-45
2021/01/17 01:51:27;;;;;;;36.83;25.27;;;0.50;99.90;;;;;;5095016;28;20249;-44
2021/01/17 01:53:56;;;;;;;42.80;30.70;;;0.50;99.90;;;;;;5094900;28;20693;-44
2021/01/17 01:56:23;;;;;;;39.63;26.97;;;0.50;99.90;;;;;;5094702;28;20592;-45
2021/01/17 01:58:52;;;;;;;33.37;23.37;;;0.60;99.90;;;;;;5094617;28;20207;-50
2021/01/17 02:01:20;;;;;;;31.70;23.07;;;0.50;99.90;;;;;;5091055;28;20639;-45
2021/01/17 02:03:48;;;;;;;36.87;24.07;;;0.50;99.90;;;;;;5075963;28;20207;-47
2021/01/17 02:06:19;;;;;;;36.33;24.17;;;0.50;99.90;;;;;;5090025;28;20265;-44
2021/01/17 02:09:12;;;;;;;36.73;24.73;;;0.60;99.90;;;;;;5094531;28;20241;-45
2021/01/17 02:11:56;;;;;;;36.77;24.93;;;0.60;99.90;;;;;;5094421;28;20678;-45
2021/01/17 02:14:32;;;;;;;47.50;30.13;;;0.60;99.90;;;;;;5094563;28;20318;-46
2021/01/17 02:17:04;;;;;;;35.10;23.13;;;0.60;99.90;;;;;;5094468;28;20293;-46
2021/01/17 02:19:37;;;;;;;38.07;25.07;;;0.70;99.90;;;;;;5094397;28;20211;-45
2021/01/17 02:22:05;;;;;;;37.73;25.37;;;0.70;99.90;;;;;;5094300;28;20203;-43
2021/01/17 02:24:49;;;;;;;37.27;24.70;;;0.60;99.90;;;;;;5094525;28;20205;-45
2021/01/17 02:27:17;;;;;;;41.67;27.07;;;0.60;99.90;;;;;;5094384;28;20663;-46
2021/01/17 02:29:46;;;;;;;42.57;28.60;;;0.60;99.90;;;;;;5094280;28;20297;-44
2021/01/17 02:32:16;;;;;;;42.17;26.43;;;0.50;99.90;;;;;;5094402;28;20289;-46
2021/01/17 02:34:44;;;;;;;38.00;26.83;;;0.60;99.90;;;;;;5094113;28;20741;-47
2021/01/17 02:37:24;;;;;;;44.80;29.80;;;0.50;99.90;;;;;;5094212;28;20301;-46
2021/01/17 02:39:57;;;;;;;40.87;28.10;;;0.50;99.90;;;;;;5094119;28;20240;-45
2021/01/17 02:42:25;;;;;;;44.93;28.13;;;0.50;99.90;;;;;;5094001;28;20302;-45
2021/01/17 02:44:52;;;;;;;39.70;26.20;;;0.40;99.90;;;;;;5093860;28;20736;-44
2021/01/17 02:47:19;;;;;;;43.93;27.60;;;0.50;99.90;;;;;;5094123;28;20568;-46
2021/01/17 02:49:47;;;;;;;41.53;26.50;;;0.50;99.90;;;;;;5094097;28;20214;-45
2021/01/17 02:52:14;;;;;;;39.27;26.40;;;0.50;99.90;;;;;;5093711;28;20293;-45
2021/01/17 02:54:42;;;;;;;42.37;27.30;;;0.40;99.90;;;;;;5093768;28;20378;-48
2021/01/17 02:57:11;;;;;;;41.17;27.10;;;0.40;99.90;;;;;;5093399;28;20297;-45
2021/01/17 02:59:49;;;;;;;40.07;27.10;;;0.30;99.90;;;;;;5093667;28;20284;-43
2021/01/17 03:02:21;;;;;;;42.10;27.83;;;0.40;99.90;;;;;;5093982;28;20217;-43
2021/01/17 03:04:54;;;;;;;39.37;25.07;;;0.40;99.90;;;;;;5093422;28;20202;-44
2021/01/17 03:07:21;;;;;;;42.00;27.60;;;0.30;99.90;;;;;;5093485;28;20772;-46
2021/01/17 03:09:48;;;;;;;38.53;24.93;;;0.40;99.90;;;;;;5093709;28;20293;-44
2021/01/17 03:12:16;;;;;;;45.30;33.37;;;0.40;99.90;;;;;;5093438;28;20273;-49
2021/01/17 03:14:46;;;;;;;46.00;35.60;;;0.50;99.90;;;;;;5093387;28;20313;-48
2021/01/17 03:17:13;;;;;;;41.22;27.17;;;0.50;99.90;;;;;;5093685;28;20293;-49
2021/01/17 03:19:40;;;;;;;42.20;26.10;;;0.50;99.90;;;;;;5093419;28;20293;-45
2021/01/17 03:22:07;;;;;;;42.27;27.10;;;0.50;99.90;;;;;;5093381;28;20621;-44
2021/01/17 03:24:34;;;;;;;38.57;26.67;;;0.50;99.90;;;;;;5093111;28;20804;-43
2021/01/17 03:27:01;;;;;;;42.37;27.97;;;0.50;99.90;;;;;;5093391;28;20206;-43
2021/01/17 03:29:29;;;;;;;37.07;26.00;;;0.60;99.90;;;;;;5093234;28;20738;-44
2021/01/17 03:31:56;;;;;;;39.03;26.37;;;0.50;99.90;;;;;;5093147;28;20210;-45
2021/01/17 03:34:23;;;;;;;38.47;26.50;;;0.40;99.90;;;;;;5092996;28;20693;-50
2021/01/17 03:36:50;;;;;;;45.03;29.57;;;0.30;99.90;;;;;;5092898;28;20207;-44
2021/01/17 03:39:17;;;;;;;43.00;27.33;;;0.40;99.90;;;;;;5092737;28;20546;-44
2021/01/17 03:41:44;;;;;;;41.87;27.80;;;0.40;99.90;;;;;;5093027;28;20231;-45
2021/01/17 03:44:12;;;;;;;37.50;26.03;;;0.40;99.90;;;;;;5093046;28;20207;-49
2021/01/17 03:46:40;;;;;;;32.87;24.13;;;0.50;99.90;;;;;;5092897;28;20289;-45
2021/01/17 03:49:08;;;;;;;34.83;26.13;;;0.50;99.90;;;;;;5092996;28;20221;-45
2021/01/17 03:51:35;;;;;;;38.97;25.73;;;0.50;99.90;;;;;;5092886;28;20229;-45
2021/01/17 03:54:02;;;;;;;39.77;26.57;;;0.60;99.90;;;;;;5092745;28;20325;-45
2021/01/17 03:56:29;;;;;;;40.57;27.57;;;0.60;99.90;;;;;;5092746;28;20241;-49
2021/01/17 03:58:56;;;;;;;33.13;25.23;;;0.60;99.90;;;;;;5092772;28;20244;-48
2021/01/17 04:01:23;;;;;;;35.50;26.03;;;0.60;99.90;;;;;;5092677;28;20213;-48
2021/01/17 04:03:51;;;;;;;38.37;27.17;;;0.70;99.90;;;;;;5092805;28;20273;-48
2021/01/17 04:06:18;;;;;;;34.23;26.20;;;0.70;99.90;;;;;;5092518;28;20298;-44
2021/01/17 04:08:45;;;;;;;65.33;38.30;;;0.70;99.90;;;;;;5092028;28;20241;-46
2021/01/17 04:11:13;;;;;;;40.57;28.37;;;0.70;99.90;;;;;;5092602;28;20654;-47
2021/01/17 04:13:40;;;;;;;70.77;43.30;;;0.80;99.90;;;;;;5092168;28;20261;-48
2021/01/17 04:16:08;;;;;;;37.90;26.73;;;0.70;99.90;;;;;;5092350;28;20628;-46
2021/01/17 04:18:35;;;;;;;43.07;30.83;;;0.70;99.90;;;;;;5092357;28;20279;-48
2021/01/17 04:21:04;;;;;;;53.33;35.90;;;0.70;99.90;;;;;;5092748;28;20241;-46
2021/01/17 04:23:31;;;;;;;41.23;28.13;;;0.80;99.90;;;;;;5092337;28;20301;-49
2021/01/17 04:25:58;;;;;;;35.17;24.87;;;0.80;99.90;;;;;;5092278;28;20297;-47
2021/01/17 04:28:25;;;;;;;61.77;43.63;;;0.70;99.90;;;;;;5092437;28;20257;-48
2021/01/17 04:30:52;;;;;;;68.27;41.73;;;0.80;99.90;;;;;;5092096;28;20668;-47
2021/01/17 04:33:19;;;;;;;84.47;47.60;;;0.70;99.90;;;;;;5091988;28;20661;-44
2021/01/17 04:35:47;;;;;;;73.23;42.33;;;0.70;99.90;;;;;;5092482;28;20301;-46
2021/01/17 04:38:15;;;;;;;100.93;68.30;;;0.60;99.90;;;;;;5092146;28;20206;-45
2021/01/17 04:40:42;;;;;;;68.27;48.60;;;0.60;99.90;;;;;;5092278;28;20206;-45
2021/01/17 04:43:17;;;;;;;47.33;35.03;;;0.60;99.90;;;;;;5092211;28;20214;-47
2021/01/17 04:45:47;;;;;;;67.63;53.03;;;0.50;99.90;;;;;;5091919;28;20640;-45
2021/01/17 04:48:15;;;;;;;36.53;26.80;;;0.50;99.90;;;;;;5092425;28;20214;-46
2021/01/17 04:50:45;;;;;;;37.13;26.10;;;0.50;99.90;;;;;;5092143;28;20614;-44
2021/01/17 04:53:13;;;;;;;37.40;25.77;;;0.50;99.90;;;;;;5092368;28;20215;-44
2021/01/17 04:55:41;;;;;;;37.27;24.93;;;0.50;99.90;;;;;;5092061;28;20321;-47
2021/01/17 04:58:16;;;;;;;46.38;34.60;;;0.50;99.90;;;;;;5091969;28;20374;-44
2021/01/17 05:00:49;;;;;;;36.60;26.37;;;0.50;99.90;;;;;;5092185;28;20218;-46
2021/01/17 05:03:30;;;;;;;32.57;23.33;;;0.50;99.90;;;;;;5092184;28;20210;-48
2021/01/17 05:06:14;;;;;;;39.33;26.43;;;0.50;99.90;;;;;;5091855;28;20738;-48
2021/01/17 05:08:44;;;;;;;37.27;24.43;;;0.50;99.90;;;;;;5091945;28;20328;-47
2021/01/17 05:11:29;;;;;;;33.80;25.17;;;0.50;99.90;;;;;;5092259;28;20572;-45
2021/01/17 05:14:12;;;;;;;35.43;25.57;;;0.60;99.90;;;;;;5092042;28;20230;-48
2021/01/17 05:16:41;;;;;;;34.40;24.63;;;0.60;99.90;;;;;;5091908;28;20327;-48
2021/01/17 05:19:11;;;;;;;33.80;24.93;;;0.60;99.90;;;;;;5091829;28;20218;-46
2021/01/17 05:21:44;;;;;;;32.53;21.93;;;0.70;99.90;;;;;;5095234;28;20297;-43
2021/01/17 05:24:13;;;;;;;35.07;24.80;;;0.70;99.90;;;;;;5095808;28;20698;-47
2021/01/17 05:26:42;;;;;;;33.93;24.17;;;0.70;99.90;;;;;;5095528;28;20290;-43
2021/01/17 05:29:10;;;;;;;31.23;22.50;;;0.70;99.90;;;;;;5095390;28;20256;-46
2021/01/17 05:31:37;;;;;;;39.83;33.43;;;0.60;99.90;;;;;;5095616;28;20724;-47
2021/01/17 05:34:04;;;;;;;33.00;25.40;;;0.60;99.90;;;;;;5095440;28;20242;-46
2021/01/17 05:36:31;;;;;;;33.45;22.98;;;0.50;99.90;;;;;;5095440;28;20230;-48
2021/01/17 05:39:04;;;;;;;31.80;25.10;;;0.60;99.90;;;;;;5095249;28;20202;-45
2021/01/17 05:41:31;;;;;;;29.93;22.80;;;0.60;99.90;;;;;;5095397;28;20217;-43
2021/01/17 05:43:59;;;;;;;32.20;22.57;;;0.50;99.90;;;;;;5095425;28;20253;-43
2021/01/17 05:46:26;;;;;;;34.00;23.67;;;0.50;99.90;;;;;;5095230;28;20238;-45
2021/01/17 05:49:09;;;;;;;27.37;19.57;;;0.30;99.90;;;;;;5095001;28;20255;-44
2021/01/17 05:51:36;;;;;;;26.83;20.30;;;0.40;99.90;;;;;;5095548;28;20302;-46
2021/01/17 05:54:09;;;;;;;30.17;20.90;;;0.50;99.90;;;;;;5094980;28;20223;-46
2021/01/17 05:56:37;;;;;;;30.37;22.67;;;0.50;99.90;;;;;;5094844;28;20229;-46
2021/01/17 05:59:05;;;;;;;28.13;21.20;;;0.50;99.90;;;;;;5094958;28;20297;-48
2021/01/17 06:01:35;;;;;;;32.10;23.47;;;0.50;99.90;;;;;;5094688;28;20372;-50
2021/01/17 06:04:10;;;;;;;32.73;22.67;;;0.50;99.90;;;;;;5094866;28;20230;-51
2021/01/17 06:06:37;;;;;;;29.83;20.60;;;0.50;99.90;;;;;;5094724;28;20245;-46
2021/01/17 06:09:05;;;;;;;28.60;20.17;;;0.50;99.90;;;;;;5094582;28;20309;-47
2021/01/17 06:11:32;;;;;;;29.67;21.97;;;0.50;99.90;;;;;;5094385;28;20242;-47
2021/01/17 06:14:01;;;;;;;31.40;21.57;;;0.40;99.90;;;;;;5094547;28;20223;-45
2021/01/17 06:16:32;;;;;;;30.20;21.67;;;0.40;99.90;;;;;;5094420;28;20246;-48
2021/01/17 06:19:02;;;;;;;27.63;20.57;;;0.40;99.90;;;;;;5094757;28;20217;-52
2021/01/17 06:21:31;;;;;;;31.10;22.10;;;0.40;99.90;;;;;;5094374;28;20760;-45
2021/01/17 06:23:59;;;;;;;32.70;22.10;;;0.50;99.90;;;;;;5094333;28;20567;-45
2021/01/17 06:26:29;;;;;;;26.07;19.03;;;0.40;99.90;;;;;;5094475;28;20245;-44
2021/01/17 06:28:56;;;;;;;26.57;19.27;;;0.30;99.90;;;;;;5094582;28;20513;-45
2021/01/17 06:31:28;;;;;;;27.10;20.43;;;0.20;99.90;;;;;;5093837;28;20298;-46
2021/01/17 06:34:07;;;;;;;28.43;21.97;;;0.10;99.90;;;;;;5093894;28;20215;-47
2021/01/17 06:36:35;;;;;;;28.27;20.20;;;0.10;99.90;;;;;;5094250;28;20241;-47
2021/01/17 06:39:04;;;;;;;37.40;25.20;;;0.10;99.90;;;;;;5094008;28;20217;-47
2021/01/17 06:41:39;;;;;;;32.23;23.07;;;0.10;99.90;;;;;;5094253;28;20234;-45
2021/01/17 06:44:08;;;;;;;30.53;22.03;;;0.10;99.90;;;;;;5094276;28;20216;-48
2021/01/17 06:46:40;;;;;;;30.37;21.17;;;0.10;99.90;;;;;;5093962;28;20297;-44
2021/01/17 06:49:22;;;;;;;31.17;23.37;;;0.10;99.90;;;;;;5094174;28;20213;-48
2021/01/17 06:51:50;;;;;;;35.73;25.23;;;0.20;99.90;;;;;;5093965;28;20233;-44
2021/01/17 06:54:18;;;;;;;31.17;23.47;;;0.20;99.90;;;;;;5093929;28;20310;-45
2021/01/17 06:56:46;;;;;;;70.50;42.07;;;0.20;99.90;;;;;;5093908;28;20242;-48
2021/01/17 06:59:28;;;;;;;29.03;22.40;;;0.30;99.90;;;;;;5093786;28;20289;-46
2021/01/17 07:02:25;;;;;;;32.00;22.00;;;0.30;99.90;;;;;;5093708;28;20366;-43
2021/01/17 07:05:08;;;;;;;34.13;24.30;;;0.40;99.90;;;;;;5093699;28;20230;-44
2021/01/17 07:08:00;;;;;;;34.43;24.33;;;0.50;99.90;;;;;;5093663;28;20297;-44
2021/01/17 07:10:33;;;;;;;39.67;26.13;;;0.50;99.90;;;;;;5073830;28;20202;-44
2021/01/17 07:13:04;;;;;;;35.30;23.77;;;0.60;99.90;;;;;;5093237;28;20239;-42
2021/01/17 07:15:33;;;;;;;34.57;24.03;;;0.50;99.90;;;;;;5093186;28;20321;-43
2021/01/17 07:18:02;;;;;;;40.53;26.70;;;0.50;99.90;;;;;;5093190;28;20214;-42
2021/01/17 07:20:32;;;;;;;34.70;23.43;;;0.50;99.90;;;;;;5093423;28;20574;-41
2021/01/17 07:23:02;;;;;;;30.93;22.87;;;0.50;99.90;;;;;;5093493;28;20207;-42
2021/01/17 07:25:30;;;;;;;34.17;23.60;;;0.50;99.90;;;;;;5093486;28;20203;-42
2021/01/17 07:28:04;;;;;;;38.83;28.07;;;0.50;99.90;;;;;;5093270;28;20545;-42
2021/01/17 07:30:44;;;;;;;32.07;23.10;;;0.60;99.90;;;;;;5093078;28;20293;-43
2021/01/17 07:33:13;;;;;;;32.60;22.27;;;0.60;99.90;;;;;;5093473;28;20211;-43
2021/01/17 07:35:42;;;;;;;33.03;21.93;;;0.60;99.90;;;;;;5093193;28;20280;-46
2021/01/17 07:38:14;;;;;;;32.57;23.00;;;0.60;99.90;;;;;;5092961;28;20298;-44
2021/01/17 07:40:51;;;;;;;36.50;24.73;;;0.60;99.90;;;;;;5092994;28;20293;-48
2021/01/17 07:43:20;;;;;;;32.30;24.40;;;0.60;99.90;;;;;;5092587;28;20210;-46
2021/01/17 07:45:47;;;;;;;36.43;23.87;;;0.50;99.90;;;;;;5092349;28;20285;-46
2021/01/17 07:48:15;;;;;;;31.43;22.80;;;0.50;99.90;;;;;;5092856;28;20207;-46
2021/01/17 07:50:45;;;;;;;38.17;24.70;;;0.50;99.90;;;;;;5092742;28;20207;-46
2021/01/17 07:53:42;;;;;;;37.73;26.07;;;0.50;99.90;;;;;;5092657;28;20306;-46
2021/01/17 07:56:12;;;;;;;34.30;25.90;;;0.50;99.90;;;;;;5092701;28;20230;-44
2021/01/17 07:58:42;;;;;;;39.03;27.03;;;0.60;99.90;;;;;;5092373;28;20297;-46
2021/01/17 08:01:42;;;;;;;85.57;53.40;;;0.70;99.90;;;;;;5092416;28;20214;-46
2021/01/17 08:04:24;;;;;;;40.53;27.03;;;0.70;99.90;;;;;;5092353;28;20264;-43
2021/01/17 08:06:58;;;;;;;53.83;33.47;;;0.80;99.90;;;;;;5092583;28;20206;-44
2021/01/17 08:09:45;;;;;;;49.43;32.27;;;0.70;99.90;;;;;;5092410;28;20202;-44
2021/01/17 08:12:30;;;;;;;39.77;26.70;;;0.70;99.90;;;;;;5091992;28;20258;-47
2021/01/17 08:15:22;;;;;;;42.65;29.60;;;0.70;99.90;;;;;;5091833;28;20589;-46
2021/01/17 08:17:51;;;;;;;34.70;25.13;;;0.70;99.90;;;;;;5092075;28;20210;-44
2021/01/17 08:20:31;;;;;;;47.47;31.53;;;0.70;99.90;;;;;;5092281;28;20687;-46
2021/01/17 08:23:10;;;;;;;40.33;28.03;;;0.70;99.90;;;;;;5092304;28;20210;-45
2021/01/17 08:25:55;;;;;;;72.20;43.87;;;0.80;99.90;;;;;;5092025;28;20312;-46
2021/01/17 08:28:40;;;;;;;44.07;28.60;;;0.80;99.90;;;;;;5091745;28;20251;-43
2021/01/17 08:31:40;;;;;;;37.63;25.53;;;0.90;99.90;;;;;;5092307;28;20276;-42
2021/01/17 08:34:13;;;;;;;98.07;63.90;;;1.00;99.90;;;;;;5092121;28;20207;-44
2021/01/17 08:36:42;;;;;;;35.93;27.00;;;1.10;99.90;;;;;;5092016;28;20285;-43
2021/01/17 08:39:11;;;;;;;33.47;22.73;;;1.10;99.90;;;;;;5092018;28;20659;-43
2021/01/17 08:41:45;;;;;;;37.80;26.33;;;1.20;99.90;;;;;;5092082;28;20207;-43
2021/01/17 08:44:14;;;;;;;305.00;117.80;;;1.10;99.90;;;;;;5092198;28;20203;-43
2021/01/17 08:46:43;;;;;;;58.83;35.77;;;1.30;99.90;;;;;;5092114;28;20203;-43
2021/01/17 08:49:10;;;;;;;42.63;27.17;;;1.40;99.90;;;;;;5092121;28;20214;-43
2021/01/17 08:51:38;;;;;;;49.67;31.30;;;1.50;99.90;;;;;;5091970;28;20305;-42
2021/01/17 08:54:28;;;;;;;43.23;29.10;;;1.50;99.90;;;;;;5092026;28;20293;-43
2021/01/17 08:56:56;;;;;;;146.93;93.53;;;1.50;99.90;;;;;;5095639;28;20677;-43
2021/01/17 08:59:36;;;;;;;50.35;36.65;;;1.50;99.90;;;;;;5095200;28;20250;-42
2021/01/17 09:02:04;;;;;;;52.30;37.63;;;1.60;99.90;;;;;;5095591;28;20217;-42
2021/01/17 09:04:32;;;;;;;40.37;28.40;;;1.70;99.90;;;;;;5096102;28;20235;-43
2021/01/17 09:06:59;;;;;;;34.57;26.60;;;1.80;99.90;;;;;;5095652;28;20599;-43
2021/01/17 09:09:27;;;;;;;33.10;23.97;;;1.80;99.90;;;;;;5095873;28;20301;-42
2021/01/17 09:11:54;;;;;;;132.33;77.07;;;1.70;99.90;;;;;;5095657;28;20242;-42
2021/01/17 09:14:28;;;;;;;35.00;25.33;;;1.50;99.90;;;;;;5095636;28;20250;-41
2021/01/17 09:16:57;;;;;;;51.47;34.03;;;1.40;99.90;;;;;;5095740;28;20211;-44
2021/01/17 09:19:28;;;;;;;36.70;25.83;;;1.20;99.90;;;;;;5095455;28;20214;-44
2021/01/17 09:21:56;;;;;;;53.47;35.67;;;1.20;99.90;;;;;;5095658;28;20564;-47
2021/01/17 09:24:25;;;;;;;33.77;23.73;;;1.20;99.90;;;;;;5095872;28;20245;-44
2021/01/17 09:26:55;;;;;;;41.97;27.67;;;1.20;99.90;;;;;;5095470;28;20256;-48
2021/01/17 09:29:31;;;;;;;39.43;27.60;;;1.30;99.90;;;;;;5095638;28;20207;-48
2021/01/17 09:32:05;;;;;;;32.43;22.43;;;1.30;99.90;;;;;;5095401;28;20632;-50
2021/01/17 09:34:34;;;;;;;35.73;23.33;;;1.30;99.90;;;;;;5095313;28;20223;-51
2021/01/17 09:37:06;;;;;;;43.03;26.37;;;1.30;99.90;;;;;;5095225;28;20245;-46
2021/01/17 09:39:35;;;;;;;51.03;32.40;;;1.30;99.90;;;;;;5095217;28;20206;-44
2021/01/17 09:42:05;;;;;;;37.47;24.90;;;1.30;99.90;;;;;;5095111;28;20213;-51
2021/01/17 09:44:35;;;;;;;41.40;24.20;;;1.40;99.90;;;;;;5095517;28;20237;-46
2021/01/17 09:47:03;;;;;;;34.70;24.87;;;1.40;99.90;;;;;;5095068;28;20203;-50
2021/01/17 09:49:31;;;;;;;33.73;23.50;;;1.40;99.90;;;;;;5094955;28;20229;-46
2021/01/17 09:52:00;;;;;;;31.50;21.97;;;1.50;99.90;;;;;;5094661;28;20209;-47
2021/01/17 09:54:27;;;;;;;36.37;25.90;;;1.40;99.90;;;;;;5095066;28;20728;-48
2021/01/17 09:56:54;;;;;;;36.33;24.97;;;1.50;99.90;;;;;;5095560;28;20294;-46
2021/01/17 09:59:23;;;;;;;35.87;25.10;;;1.60;99.90;;;;;;5095045;28;20680;-45
2021/01/17 10:01:52;;;;;;;37.20;25.43;;;1.70;99.90;;;;;;5094685;28;20640;-43
2021/01/17 10:04:41;;;;;;;31.03;23.40;;;1.70;99.90;;;;;;5094741;28;20207;-42
2021/01/17 10:07:17;;;;;;;32.70;23.83;;;1.70;99.90;;;;;;5094021;28;20214;-42
2021/01/17 10:09:45;;;;;;;40.13;29.13;;;1.80;99.90;;;;;;5095049;28;20610;-43
2021/01/17 10:12:12;;;;;;;41.03;29.00;;;1.90;99.90;;;;;;5094901;28;20238;-42
2021/01/17 10:14:42;;;;;;;40.53;28.63;;;2.00;99.90;;;;;;5094508;28;20261;-48
2021/01/17 10:17:09;;;;;;;34.57;25.23;;;2.00;99.90;;;;;;5094066;28;20211;-49
2021/01/17 10:19:38;;;;;;;31.10;22.17;;;2.20;99.90;;;;;;5094371;28;20214;-45
2021/01/17 10:22:09;;;;;;;71.00;52.60;;;2.20;99.90;;;;;;5094526;28;20214;-44
2021/01/17 10:24:37;;;;;;;32.23;23.73;;;2.10;99.90;;;;;;5094350;28;20293;-47
2021/01/17 10:27:06;;;;;;;58.57;47.23;;;2.10;99.90;;;;;;5094169;28;20212;-45
2021/01/17 10:29:36;;;;;;;29.20;23.20;;;2.00;99.90;;;;;;5094527;28;20271;-46
2021/01/17 10:32:07;;;;;;;36.30;27.20;;;2.00;99.90;;;;;;5095057;28;20211;-48
2021/01/17 10:34:36;;;;;;;31.63;23.60;;;2.00;99.90;;;;;;5093975;28;20215;-47
2021/01/17 10:37:06;;;;;;;38.37;27.53;;;2.10;99.90;;;;;;5094234;28;20210;-43
2021/01/17 10:39:38;;;;;;;34.13;24.30;;;2.20;99.90;;;;;;5094505;28;20733;-48
2021/01/17 10:42:08;;;;;;;34.13;23.63;;;2.20;99.90;;;;;;5093821;28;20401;-45
2021/01/17 10:44:46;;;;;;;36.07;27.00;;;2.30;99.90;;;;;;5094180;28;20290;-44
2021/01/17 10:47:26;;;;;;;37.57;29.20;;;2.40;99.90;;;;;;5094131;28;20293;-50
2021/01/17 10:49:56;;;;;;;33.33;25.05;;;2.40;99.90;;;;;;5094001;28;20291;-48
2021/01/17 10:52:27;;;;;;;39.17;31.40;;;2.50;99.90;;;;;;5093826;28;20695;-45
2021/01/17 10:54:55;;;;;;;33.23;23.53;;;2.50;99.90;;;;;;5093911;28;20237;-44
2021/01/17 10:57:22;;;;;;;37.90;25.47;;;2.50;99.90;;;;;;5093722;28;20233;-44
2021/01/17 10:59:56;;;;;;;32.77;24.63;;;2.50;99.90;;;;;;5094034;28;20206;-44
2021/01/17 11:02:25;;;;;;;36.93;24.67;;;2.50;99.90;;;;;;5093930;28;20245;-43
2021/01/17 11:04:52;;;;;;;27.53;19.73;;;2.60;99.90;;;;;;5093661;28;20203;-44
2021/01/17 11:07:28;;;;;;;30.80;21.53;;;2.70;99.90;;;;;;5093651;28;20211;-44
2021/01/17 11:09:56;;;;;;;19.77;15.00;;;2.70;99.90;;;;;;5093762;28;20656;-43
2021/01/17 11:12:36;;;;;;;23.73;17.00;;;2.60;99.90;;;;;;5093332;28;20246;-43
2021/01/17 11:15:14;;;;;;;28.42;21.08;;;2.50;99.90;;;;;;5093077;28;20230;-44
2021/01/17 11:17:54;;;;;;;24.90;17.80;;;2.40;99.90;;;;;;5093345;28;20214;-43
2021/01/17 11:20:29;;;;;;;24.10;17.17;;;2.40;99.90;;;;;;5093187;28;20301;-45
2021/01/17 11:23:03;;;;;;;27.03;18.60;;;2.40;99.90;;;;;;5093488;28;20263;-43
2021/01/17 11:25:31;;;;;;;23.02;15.80;;;2.30;99.90;;;;;;5093734;28;20680;-43
2021/01/17 11:27:59;;;;;;;29.03;17.83;;;2.30;99.90;;;;;;5093077;28;20272;-42
2021/01/17 11:30:31;;;;;;;74.47;45.70;;;2.30;99.90;;;;;;5093020;28;20214;-45
2021/01/17 11:33:12;;;;;;;24.30;17.63;;;2.30;99.90;;;;;;5093119;28;20238;-45
2021/01/17 11:35:40;;;;;;;21.83;16.50;;;2.30;99.90;;;;;;5092732;28;20222;-43
2021/01/17 11:38:09;;;;;;;21.77;16.93;;;2.30;99.90;;;;;;5092955;28;20210;-45
2021/01/17 11:40:36;;;;;;;19.37;14.90;;;2.30;99.90;;;;;;5093101;28;20293;-43
2021/01/17 11:43:09;;;;;;;19.40;15.23;;;2.30;99.90;;;;;;5092950;28;20207;-43
2021/01/17 11:45:43;;;;;;;21.43;15.53;;;2.20;99.90;;;;;;5092929;28;20669;-44
2021/01/17 11:48:13;;;;;;;22.50;15.93;;;2.20;99.90;;;;;;5092681;28;20202;-42
2021/01/17 11:50:42;;;;;;;21.05;16.45;;;2.20;99.90;;;;;;5092595;28;20719;-42
2021/01/17 11:53:09;;;;;;;21.97;17.33;;;2.30;99.90;;;;;;5092877;28;20213;-44
2021/01/17 11:55:36;;;;;;;18.60;14.70;;;2.40;99.90;;;;;;5092808;28;20252;-43
2021/01/17 11:58:09;;;;;;;19.50;14.90;;;2.40;99.90;;;;;;5092603;28;20568;-45
2021/01/17 12:00:50;;;;;;;19.97;15.63;;;2.40;99.90;;;;;;5092726;28;20767;-45
2021/01/17 12:03:24;;;;;;;26.40;23.60;;;2.40;99.90;;;;;;5092340;28;20259;-43
2021/01/17 12:06:18;;;;;;;21.23;15.87;;;2.50;99.90;;;;;;5092899;28;20571;-44
2021/01/17 12:08:49;;;;;;;23.23;17.40;;;2.50;99.90;;;;;;5092313;28;20206;-45
2021/01/17 12:11:32;;;;;;;20.53;15.47;;;2.60;99.90;;;;;;5092418;28;20210;-43
2021/01/17 12:14:00;;;;;;;22.17;16.97;;;2.60;99.90;;;;;;5092663;28;20210;-45
2021/01/17 12:16:32;;;;;;;26.10;19.13;;;2.60;99.90;;;;;;5092361;28;20693;-49
2021/01/17 12:19:01;;;;;;;27.40;17.80;;;2.70;99.90;;;;;;5092352;28;20676;-43
2021/01/17 12:21:29;;;;;;;30.83;20.08;;;2.80;99.90;;;;;;5092296;28;20218;-42
2021/01/17 12:23:58;;;;;;;25.20;19.47;;;3.00;99.90;;;;;;5092185;28;20627;-43
2021/01/17 12:26:25;;;;;;;24.67;19.33;;;3.10;99.90;;;;;;5092080;28;20211;-41
2021/01/17 12:28:52;;;;;;;23.83;17.67;;;3.20;99.90;;;;;;5092380;28;20297;-45
2021/01/17 12:31:20;;;;;;;24.13;19.10;;;3.20;99.90;;;;;;5092034;28;20206;-45
2021/01/17 12:33:48;;;;;;;24.00;17.07;;;3.30;99.90;;;;;;5092682;28;20737;-48
2021/01/17 12:36:20;;;;;;;23.73;18.30;;;3.40;99.90;;;;;;5092861;28;20218;-48
2021/01/17 12:38:48;;;;;;;26.83;19.80;;;3.30;99.90;;;;;;5092638;28;20241;-52
2021/01/17 12:41:17;;;;;;;24.60;18.37;;;3.20;99.90;;;;;;5092275;28;20210;-50
2021/01/17 12:43:45;;;;;;;25.00;18.97;;;3.30;99.90;;;;;;5092183;28;20683;-43
2021/01/17 12:46:14;;;;;;;27.27;18.73;;;3.40;99.90;;;;;;5092054;28;20668;-43
2021/01/17 12:48:42;;;;;;;29.17;19.83;;;3.60;99.90;;;;;;5092395;28;20214;-44
2021/01/17 12:51:10;;;;;;;26.13;19.67;;;3.80;99.90;;;;;;5091905;28;20238;-44
2021/01/17 12:53:41;;;;;;;25.07;19.20;;;3.90;99.90;;;;;;5092269;28;20313;-44